createdAt,value
2022-12-01T00:03:56.858Z,100991.75
2022-12-01T00:09:09.783Z,100984.56
2022-12-01T00:14:03.821Z,100985.50
2022-12-01T00:18:57.753Z,100970.47
2022-12-01T00:23:53.679Z,100930.22
2022-12-01T00:29:10.340Z,100971.50
2022-12-01T00:34:08.117Z,100977.56
2022-12-01T00:39:04.942Z,100948.16
2022-12-01T00:43:58.341Z,100973.97
2022-12-01T00:48:52.141Z,100972.38
2022-12-01T00:53:46.909Z,100961.25
2022-12-01T00:58:41.248Z,100946.16
2022-12-01T01:03:35.701Z,100951.31
2022-12-01T01:08:29.857Z,100979.44
2022-12-01T01:13:23.939Z,100979.59
2022-12-01T01:18:17.069Z,100970.91
2022-12-01T01:23:10.800Z,100991.06
2022-12-01T01:28:04.622Z,100985.59
2022-12-01T01:32:58.123Z,100991.06
2022-12-01T01:37:53.199Z,100986.69
2022-12-01T01:42:46.911Z,100970.28
2022-12-01T01:47:42.645Z,100981.25
2022-12-01T01:52:41.764Z,100975.25
2022-12-01T01:57:35.871Z,100962.44
2022-12-01T02:02:29.781Z,100953.63
2022-12-01T02:07:27.311Z,100978.91
2022-12-01T02:12:29.678Z,100975.16
2022-12-01T02:17:42.129Z,100974.28
2022-12-01T02:23:02.553Z,100972.44
2022-12-01T02:28:14.576Z,100968.06
2022-12-01T02:33:24.278Z,100962.03
2022-12-01T02:38:24.978Z,100957.56
2022-12-01T02:43:30.721Z,100956.53
2022-12-01T02:48:37.042Z,100955.75
2022-12-01T02:53:31.481Z,100937.13
2022-12-01T02:58:25.196Z,100943.03
2022-12-01T03:03:56.335Z,100954.81
2022-12-01T03:09:04.112Z,100938.66
2022-12-01T03:14:02.222Z,100962.84
2022-12-01T03:19:17.945Z,100950.66
2022-12-01T03:24:16.053Z,100954.22
2022-12-01T03:29:30.901Z,100956.88
2022-12-01T03:34:57.062Z,100948.00
2022-12-01T03:40:00.634Z,100921.25
2022-12-01T03:45:01.285Z,100960.38
2022-12-01T03:49:55.793Z,100953.31
2022-12-01T03:55:03.533Z,100957.56
2022-12-01T03:59:57.244Z,100940.56
2022-12-01T04:04:51.154Z,100976.88
2022-12-01T04:09:45.128Z,100965.66
2022-12-01T04:14:38.794Z,100943.22
2022-12-01T04:19:32.857Z,100963.69
2022-12-01T04:24:26.617Z,100939.00
2022-12-01T04:29:21.106Z,100958.66
2022-12-01T04:34:14.080Z,100945.91
2022-12-01T04:39:08.176Z,100948.00
2022-12-01T04:44:01.455Z,100941.50
2022-12-01T04:48:54.948Z,100927.81
2022-12-01T04:53:49.262Z,100966.53
2022-12-01T04:58:43.279Z,100935.53
2022-12-01T05:03:41.262Z,100957.72
2022-12-01T05:08:35.225Z,100959.69
2022-12-01T05:13:28.599Z,100959.00
2022-12-01T05:18:23.079Z,100967.63
2022-12-01T05:23:17.414Z,100943.53
2022-12-01T05:28:11.214Z,100963.13
2022-12-01T05:33:05.559Z,100951.31
2022-12-01T05:38:03.264Z,100957.53
2022-12-01T05:43:00.163Z,100968.41
2022-12-01T05:48:00.621Z,100959.59
2022-12-01T05:52:53.781Z,100982.00
2022-12-01T05:57:48.000Z,100960.59
2022-12-01T06:02:42.707Z,100961.81
2022-12-01T06:07:36.600Z,100949.00
2022-12-01T06:12:29.794Z,100960.81
2022-12-01T06:17:24.118Z,100966.59
2022-12-01T06:22:17.671Z,100945.00
2022-12-01T06:27:10.294Z,100924.47
2022-12-01T06:32:03.918Z,100970.03
2022-12-01T06:36:57.200Z,100949.69
2022-12-01T06:41:50.306Z,100972.88
2022-12-01T06:46:43.723Z,100954.66
2022-12-01T06:51:36.710Z,100934.91
2022-12-01T06:56:30.678Z,100977.03
2022-12-01T07:01:24.488Z,100952.94
2022-12-01T07:06:18.752Z,100987.41
2022-12-01T07:11:15.409Z,101010.69
2022-12-01T07:16:09.927Z,100990.75
2022-12-01T07:21:04.764Z,100993.97
2022-12-01T07:26:08.275Z,100996.28
2022-12-01T07:31:13.117Z,101017.44
2022-12-01T07:36:08.691Z,101004.19
2022-12-01T07:41:22.492Z,101001.78
2022-12-01T07:46:23.504Z,100983.41
2022-12-01T07:51:17.653Z,101011.84
2022-12-01T07:56:11.101Z,101004.63
2022-12-01T08:01:12.257Z,101023.09
2022-12-01T08:06:07.384Z,100999.22
2022-12-01T08:11:03.737Z,101027.50
2022-12-01T08:15:57.512Z,101028.94
2022-12-01T08:20:51.937Z,101029.41
2022-12-01T08:25:45.543Z,101013.72
2022-12-01T08:30:39.193Z,101044.59
2022-12-01T08:35:34.638Z,101044.31
2022-12-01T08:40:28.067Z,101023.44
2022-12-01T08:45:21.209Z,101042.91
2022-12-01T08:50:15.268Z,101044.63
2022-12-01T08:55:08.890Z,101025.63
2022-12-01T09:00:03.353Z,101025.63
2022-12-01T09:04:57.358Z,101033.25
2022-12-01T09:09:51.415Z,101034.34
2022-12-01T09:14:50.037Z,101059.00
2022-12-01T09:19:45.008Z,101040.03
2022-12-01T09:24:39.425Z,101066.75
2022-12-01T09:29:33.301Z,101065.81
2022-12-01T09:34:27.374Z,101060.66
2022-12-01T09:39:21.414Z,101075.31
2022-12-01T09:44:33.465Z,101052.50
2022-12-01T09:49:51.137Z,101051.41
2022-12-01T09:54:44.233Z,101047.16
2022-12-01T09:59:42.221Z,101002.44
2022-12-01T10:04:40.331Z,101007.50
2022-12-01T10:09:36.609Z,101018.78
2022-12-01T10:14:34.215Z,101011.72
2022-12-01T10:19:33.092Z,101015.84
2022-12-01T10:24:37.591Z,101016.75
2022-12-01T10:29:48.018Z,101025.50
2022-12-01T10:34:47.378Z,101002.75
2022-12-01T10:39:44.031Z,100996.53
2022-12-01T10:44:37.905Z,101003.28
2022-12-01T10:49:42.001Z,100956.91
2022-12-01T10:54:41.246Z,100971.38
2022-12-01T10:59:55.889Z,101001.72
2022-12-01T11:04:55.279Z,100998.84
2022-12-01T11:09:59.010Z,100998.00
2022-12-01T11:14:54.902Z,100992.53
2022-12-01T11:19:49.147Z,100967.50
2022-12-01T11:24:57.449Z,100962.25
2022-12-01T11:29:55.407Z,100963.81
2022-12-01T11:34:57.617Z,100974.84
2022-12-01T11:39:52.262Z,100952.47
2022-12-01T11:45:11.475Z,100992.31
2022-12-01T11:50:25.346Z,100972.91
2022-12-01T11:55:18.299Z,100966.81
2022-12-01T12:00:14.855Z,100951.63
2022-12-01T12:06:17.701Z,100964.13
2022-12-01T12:11:30.545Z,100954.38
2022-12-01T12:16:28.726Z,100948.81
2022-12-01T12:21:58.108Z,100945.09
2022-12-01T12:27:34.168Z,100945.91
2022-12-01T12:32:52.272Z,100940.56
2022-12-01T12:38:09.175Z,100934.59
2022-12-01T12:43:25.037Z,100922.97
2022-12-01T12:48:23.965Z,100935.84
2022-12-01T12:53:23.728Z,100926.28
2022-12-01T12:58:19.576Z,100925.25
2022-12-01T13:04:07.718Z,100926.28
2022-12-01T13:09:12.021Z,100905.78
2022-12-01T13:14:16.048Z,100912.13
2022-12-01T13:19:27.668Z,100919.97
2022-12-01T13:24:24.376Z,100893.41
2022-12-01T13:29:22.114Z,100896.81
2022-12-01T13:34:32.878Z,100894.78
2022-12-01T13:39:29.107Z,100875.81
2022-12-01T13:44:33.549Z,100880.91
2022-12-01T13:49:58.905Z,100869.91
2022-12-01T13:55:10.575Z,100885.81
2022-12-01T14:00:21.500Z,100892.81
2022-12-01T14:05:24.045Z,100897.25
2022-12-01T14:10:30.745Z,100901.59
2022-12-01T14:15:43.162Z,100878.38
2022-12-01T14:20:46.342Z,100882.63
2022-12-01T14:25:40.750Z,100906.88
2022-12-01T14:30:40.076Z,100905.13
2022-12-01T14:35:35.247Z,100868.28
2022-12-01T14:40:31.320Z,100877.53
2022-12-01T14:46:06.931Z,100898.09
2022-12-01T14:51:15.859Z,100891.00
2022-12-01T14:56:13.074Z,100876.34
2022-12-01T15:01:45.767Z,100885.69
2022-12-01T15:07:18.497Z,100890.06
2022-12-01T15:12:40.878Z,100880.91
2022-12-01T15:17:37.748Z,100892.81
2022-12-01T15:22:33.193Z,100900.84
2022-12-01T15:27:31.825Z,100897.25
2022-12-01T15:32:27.730Z,100871.34
2022-12-01T15:37:24.722Z,100875.81
2022-12-01T15:42:26.865Z,100881.00
2022-12-01T15:47:56.271Z,100901.69
2022-12-01T15:52:51.206Z,100891.00
2022-12-01T15:57:47.470Z,100899.81
2022-12-01T16:02:41.148Z,100883.75
2022-12-01T16:08:11.300Z,100898.25
2022-12-01T16:12:50.269Z,100912.28
2022-12-01T16:17:50.475Z,100906.13
2022-12-01T16:22:47.734Z,100873.69
2022-12-01T16:27:41.954Z,100888.19
2022-12-01T16:32:37.327Z,100897.94
2022-12-01T16:37:30.567Z,100916.53
2022-12-01T16:42:24.399Z,100913.63
2022-12-01T16:47:22.534Z,100924.84
2022-12-01T16:52:42.985Z,100897.06
2022-12-01T16:57:29.936Z,100921.00
2022-12-01T17:02:22.799Z,100904.00
2022-12-01T17:07:16.423Z,100920.66
2022-12-01T17:12:14.261Z,100903.41
2022-12-01T17:17:07.970Z,100914.16
2022-12-01T17:22:02.095Z,100920.50
2022-12-01T17:26:55.876Z,100934.56
2022-12-01T17:31:50.456Z,100914.00
2022-12-01T17:36:42.950Z,100937.94
2022-12-01T17:41:36.733Z,100946.56
2022-12-01T17:46:30.643Z,100942.88
2022-12-01T17:51:24.879Z,100931.09
2022-12-01T17:56:18.034Z,100904.34
2022-12-01T18:01:31.661Z,100938.34
2022-12-01T18:06:26.030Z,100951.59
2022-12-01T18:11:20.080Z,100930.81
2022-12-01T18:16:17.186Z,100962.53
2022-12-01T18:21:17.681Z,100976.41
2022-12-01T18:26:16.098Z,100947.56
2022-12-01T18:31:12.532Z,100956.41
2022-12-01T18:36:27.968Z,100979.06
2022-12-01T18:41:24.972Z,100979.38
2022-12-01T18:46:19.929Z,100942.19
2022-12-01T18:51:13.565Z,100941.31
2022-12-01T18:56:11.687Z,100941.25
2022-12-01T19:01:21.471Z,100962.91
2022-12-01T19:06:15.101Z,100964.63
2022-12-01T19:11:09.137Z,100939.81
2022-12-01T19:16:11.612Z,100953.13
2022-12-01T19:21:06.993Z,100946.97
2022-12-01T19:25:59.697Z,100967.75
2022-12-01T19:30:52.607Z,100969.84
2022-12-01T19:35:45.118Z,100995.03
2022-12-01T19:40:39.421Z,100991.59
2022-12-01T19:45:33.488Z,100949.25
2022-12-01T19:50:27.480Z,100997.84
2022-12-01T19:55:20.832Z,100992.78
2022-12-01T20:00:16.573Z,100967.91
2022-12-01T20:05:10.910Z,100997.66
2022-12-01T20:10:05.113Z,100988.97
2022-12-01T20:14:58.449Z,100986.63
2022-12-01T20:19:51.736Z,101007.75
2022-12-01T20:24:46.270Z,101012.38
2022-12-01T20:29:40.113Z,100982.09
2022-12-01T20:34:38.135Z,100982.66
2022-12-01T20:39:36.113Z,100986.66
2022-12-01T20:44:30.495Z,100986.81
2022-12-01T20:49:24.302Z,101009.94
2022-12-01T20:54:28.298Z,101010.00
2022-12-01T20:59:23.668Z,101015.00
2022-12-01T21:04:17.252Z,101013.09
2022-12-01T21:09:10.303Z,100995.72
2022-12-01T21:14:05.276Z,101010.53
2022-12-01T21:19:11.786Z,101001.03
2022-12-01T21:24:20.879Z,100985.63
2022-12-01T21:29:22.399Z,101012.34
2022-12-01T21:34:27.279Z,101000.56
2022-12-01T21:39:23.968Z,101007.09
2022-12-01T21:44:21.039Z,100985.38
2022-12-01T21:49:15.459Z,101001.50
2022-12-01T21:54:16.435Z,101010.28
2022-12-01T21:59:16.175Z,100985.38
2022-12-01T22:04:19.441Z,101009.34
2022-12-01T22:09:35.538Z,101022.50
2022-12-01T22:14:36.825Z,101005.06
2022-12-01T22:19:42.766Z,101001.81
2022-12-01T22:24:48.680Z,101024.22
2022-12-01T22:29:46.067Z,101025.00
2022-12-01T22:34:38.972Z,101015.13
2022-12-01T22:39:36.165Z,101006.06
2022-12-01T22:44:32.151Z,100993.09
2022-12-01T22:49:25.692Z,101030.28
2022-12-01T22:54:19.186Z,101030.44
2022-12-01T22:59:23.039Z,101041.81
2022-12-01T23:04:25.661Z,101036.53
2022-12-01T23:09:18.865Z,100998.63
2022-12-01T23:14:20.282Z,101007.03
2022-12-01T23:19:14.766Z,101015.66
2022-12-01T23:24:10.997Z,101032.84
2022-12-01T23:29:04.282Z,101015.66
2022-12-01T23:33:57.633Z,101024.31
2022-12-01T23:38:55.771Z,101014.22
2022-12-01T23:43:49.757Z,101026.00
2022-12-01T23:48:49.811Z,101016.84
2022-12-01T23:53:44.031Z,101023.38
2022-12-01T23:58:37.378Z,101022.34
